createdAt,value
2023-04-11T00:04:55.101Z,92.31
2023-04-11T00:09:57.001Z,92.01
2023-04-11T00:14:58.731Z,92.49
2023-04-11T00:20:07.463Z,93.25
2023-04-11T00:25:09.533Z,93.22
2023-04-11T00:30:13.287Z,91.47
2023-04-11T00:35:15.242Z,91.48
2023-04-11T00:40:18.711Z,91.65
2023-04-11T00:45:20.765Z,92.05
2023-04-11T00:50:25.178Z,92.54
2023-04-11T00:55:27.395Z,91.94
2023-04-11T01:00:33.916Z,91.81
2023-04-11T01:05:36.426Z,92.58
2023-04-11T01:10:39.480Z,93.38
2023-04-11T01:15:41.307Z,93.03
2023-04-11T01:20:43.192Z,93.38
2023-04-11T01:25:44.847Z,93.13
2023-04-11T01:30:47.610Z,91.93
2023-04-11T01:35:49.957Z,91.57
2023-04-11T01:40:52.724Z,91.70
2023-04-11T01:45:54.388Z,91.78
2023-04-11T01:50:56.392Z,91.63
2023-04-11T01:55:58.176Z,91.32
2023-04-11T02:01:00.224Z,91.26
2023-04-11T02:06:02.401Z,91.53
2023-04-11T02:11:05.270Z,91.76
2023-04-11T02:16:09.702Z,92.40
2023-04-11T02:21:11.804Z,93.15
2023-04-11T02:26:14.149Z,94.15
2023-04-11T02:31:16.118Z,93.77
2023-04-11T02:36:18.702Z,93.59
2023-04-11T02:41:20.574Z,93.45
2023-04-11T02:46:22.584Z,93.24
2023-04-11T02:51:24.434Z,93.31
2023-04-11T02:56:27.149Z,93.79
2023-04-11T03:01:31.516Z,94.22
2023-04-11T03:06:33.669Z,94.27
2023-04-11T03:11:35.664Z,94.48
2023-04-11T03:16:37.900Z,94.30
2023-04-11T03:21:39.820Z,94.73
2023-04-11T03:26:42.335Z,94.78
2023-04-11T03:31:46.179Z,94.39
2023-04-11T03:36:49.335Z,94.75
2023-04-11T03:41:52.097Z,94.47
2023-04-11T03:46:54.284Z,95.25
2023-04-11T03:51:56.569Z,95.11
2023-04-11T03:56:59.195Z,95.48
2023-04-11T04:07:11.018Z,95.06
2023-04-11T04:12:19.988Z,94.95
2023-04-11T04:17:44.811Z,95.82
2023-04-11T04:22:53.250Z,96.14
2023-04-11T04:28:01.013Z,96.75
2023-04-11T04:33:12.140Z,96.99
2023-04-11T04:38:18.044Z,96.92
2023-04-11T04:43:27.358Z,97.14
2023-04-11T04:48:55.622Z,97.64
2023-04-11T04:53:59.737Z,97.85
2023-04-11T04:59:01.752Z,98.42
2023-04-11T05:04:06.006Z,98.10
2023-04-11T05:09:29.254Z,97.48
2023-04-11T05:14:40.764Z,97.16
2023-04-11T05:19:42.574Z,96.42
2023-04-11T05:24:46.039Z,95.18
2023-04-11T05:29:48.152Z,94.90
2023-04-11T05:34:55.832Z,94.08
2023-04-11T05:40:08.871Z,93.41
2023-04-11T05:45:11.008Z,92.65
2023-04-11T05:50:14.387Z,91.17
2023-04-11T05:55:17.248Z,90.59
2023-04-11T06:00:20.820Z,90.53
2023-04-11T06:05:22.454Z,90.42
2023-04-11T06:10:24.289Z,88.67
2023-04-11T06:15:26.859Z,88.84
2023-04-11T06:20:28.604Z,86.61
2023-04-11T06:25:30.338Z,83.46
2023-04-11T06:30:32.067Z,84.09
2023-04-11T06:35:33.797Z,84.74
2023-04-11T06:40:35.596Z,84.75
2023-04-11T06:45:37.333Z,84.28
2023-04-11T06:50:41.855Z,83.23
2023-04-11T06:55:43.828Z,82.30
2023-04-11T07:00:45.619Z,81.07
2023-04-11T07:05:47.249Z,79.95
2023-04-11T07:10:48.878Z,78.79
2023-04-11T07:15:50.580Z,76.22
2023-04-11T07:20:52.982Z,73.81
2023-04-11T07:25:55.628Z,72.91
2023-04-11T07:30:57.881Z,72.32
2023-04-11T07:36:00.203Z,71.37
2023-04-11T07:41:03.159Z,70.69
2023-04-11T07:46:04.924Z,70.19
2023-04-11T07:51:06.834Z,69.97
2023-04-11T07:56:09.100Z,70.42
2023-04-11T08:01:25.128Z,69.25
2023-04-11T08:06:29.033Z,66.78
2023-04-11T08:11:31.003Z,65.01
2023-04-11T08:16:35.605Z,64.17
2023-04-11T08:21:41.309Z,62.72
2023-04-11T08:26:43.094Z,60.78
2023-04-11T08:31:45.670Z,60.09
2023-04-11T08:36:47.455Z,59.40
2023-04-11T08:41:49.203Z,57.89
2023-04-11T08:46:50.962Z,56.86
2023-04-11T08:51:56.622Z,55.98
2023-04-11T08:56:58.228Z,54.76
2023-04-11T09:02:11.229Z,51.67
2023-04-11T09:07:13.749Z,50.29
2023-04-11T09:12:15.823Z,48.49
2023-04-11T09:17:17.529Z,48.83
2023-04-11T09:22:19.644Z,48.65
2023-04-11T09:27:24.523Z,49.57
2023-04-11T09:32:30.963Z,50.00
2023-04-11T09:37:52.956Z,47.45
2023-04-11T09:43:04.246Z,47.58
2023-04-11T09:48:06.396Z,47.97
2023-04-11T09:53:11.034Z,46.75
2023-04-11T09:58:15.901Z,45.46
2023-04-11T10:03:20.293Z,43.03
2023-04-11T10:08:33.479Z,43.33
2023-04-11T10:13:35.123Z,44.41
2023-04-11T10:18:38.201Z,43.58
2023-04-11T10:24:08.929Z,42.35
2023-04-11T10:29:40.844Z,43.09
2023-04-11T10:34:51.801Z,42.92
2023-04-11T10:39:53.741Z,41.28
2023-04-11T10:45:18.158Z,40.04
2023-04-11T10:50:26.322Z,40.16
2023-04-11T10:55:30.346Z,39.72
2023-04-11T11:01:01.030Z,40.44
2023-04-11T11:06:06.781Z,39.02
2023-04-11T11:11:10.876Z,38.75
2023-04-11T11:16:24.256Z,38.86
2023-04-11T11:21:28.869Z,39.24
2023-04-11T11:26:44.053Z,34.45
2023-04-11T11:31:47.783Z,35.29
2023-04-11T11:36:49.737Z,35.62
2023-04-11T11:41:52.317Z,36.02
2023-04-11T11:47:12.941Z,36.62
2023-04-11T11:52:35.152Z,36.07
2023-04-11T11:57:37.435Z,36.86
2023-04-11T12:02:42.393Z,38.25
2023-04-11T12:07:44.354Z,38.41
2023-04-11T12:12:53.962Z,38.78
2023-04-11T12:17:56.059Z,37.98
2023-04-11T12:22:57.800Z,37.91
2023-04-11T12:27:59.476Z,37.72
2023-04-11T12:33:01.465Z,37.46
2023-04-11T12:38:04.277Z,37.11
2023-04-11T12:43:06.252Z,37.95
2023-04-11T12:48:08.183Z,37.39
2023-04-11T12:53:09.926Z,37.01
2023-04-11T12:58:11.876Z,37.43
2023-04-11T13:03:13.799Z,36.16
2023-04-11T13:08:15.939Z,37.77
2023-04-11T13:13:18.745Z,38.99
2023-04-11T13:18:21.005Z,39.10
2023-04-11T13:23:22.699Z,40.29
2023-04-11T13:28:25.013Z,41.13
2023-04-11T13:33:27.233Z,42.08
2023-04-11T13:38:29.300Z,42.45
2023-04-11T13:43:31.382Z,43.28
2023-04-11T13:48:33.165Z,43.98
2023-04-11T13:53:35.012Z,44.78
2023-04-11T13:58:38.121Z,44.73
2023-04-11T14:03:42.783Z,45.09
2023-04-11T14:08:44.899Z,45.78
2023-04-11T14:13:46.551Z,47.06
2023-04-11T14:18:48.266Z,48.47
2023-04-11T14:23:51.191Z,50.30
2023-04-11T14:28:53.020Z,51.98
2023-04-11T14:33:54.914Z,54.19
2023-04-11T14:38:56.895Z,56.35
2023-04-11T14:43:58.815Z,58.20
2023-04-11T14:49:00.816Z,60.58
2023-04-11T14:54:02.482Z,63.22
2023-04-11T14:59:04.247Z,67.28
2023-04-11T15:04:06.240Z,70.26
2023-04-11T15:09:08.404Z,73.69
2023-04-11T15:14:10.128Z,77.53
2023-04-11T15:19:11.803Z,80.50
2023-04-11T15:24:13.515Z,83.71
2023-04-11T15:29:18.248Z,86.58
2023-04-11T15:34:22.068Z,88.32
2023-04-11T15:39:23.846Z,90.37
2023-04-11T15:44:25.638Z,93.32
2023-04-11T15:49:27.448Z,95.06
2023-04-11T15:54:31.461Z,95.78
2023-04-11T15:59:33.753Z,96.40
2023-04-11T16:04:46.240Z,97.63
2023-04-11T16:09:49.523Z,97.86
2023-04-11T16:14:51.229Z,99.66
2023-04-11T16:19:53.817Z,100.00
2023-04-11T16:24:56.298Z,100.00
2023-04-11T16:30:01.212Z,100.00
2023-04-11T16:35:02.890Z,100.00
2023-04-11T16:40:12.678Z,100.00
2023-04-11T16:45:14.495Z,99.95
2023-04-11T16:50:17.774Z,99.04
2023-04-11T16:55:19.603Z,97.57
2023-04-11T17:00:21.534Z,99.05
2023-04-11T17:05:24.159Z,100.00
2023-04-11T17:10:26.127Z,100.00
2023-04-11T17:15:27.994Z,100.00
2023-04-11T17:20:29.626Z,100.00
2023-04-11T17:25:32.509Z,100.00
2023-04-11T17:30:35.416Z,100.00
2023-04-11T17:35:37.183Z,100.00
2023-04-11T17:40:39.525Z,99.96
2023-04-11T17:45:42.803Z,99.97
2023-04-11T17:50:46.280Z,100.00
2023-04-11T17:55:48.702Z,100.00
2023-04-11T18:00:56.101Z,100.00
2023-04-11T18:05:59.756Z,100.00
2023-04-11T18:11:01.540Z,100.00
2023-04-11T18:16:03.402Z,100.00
2023-04-11T18:21:08.133Z,100.00
2023-04-11T18:26:11.724Z,100.00
2023-04-11T18:31:14.245Z,100.00
2023-04-11T18:36:16.290Z,100.00
2023-04-11T18:41:18.872Z,100.00
2023-04-11T18:46:21.521Z,100.00
2023-04-11T18:51:23.448Z,100.00
2023-04-11T18:56:29.560Z,100.00
2023-04-11T19:01:31.982Z,100.00
2023-04-11T19:06:36.121Z,100.00
2023-04-11T19:11:38.509Z,100.00
2023-04-11T19:16:40.447Z,100.00
2023-04-11T19:21:42.138Z,100.00
2023-04-11T19:26:44.070Z,100.00
2023-04-11T19:31:45.954Z,100.00
2023-04-11T19:36:47.604Z,100.00
2023-04-11T19:41:49.246Z,100.00
2023-04-11T19:46:51.958Z,100.00
2023-04-11T19:51:53.694Z,100.00
2023-04-11T19:56:55.351Z,100.00
2023-04-11T20:02:26.690Z,100.00
2023-04-11T20:07:39.323Z,100.00
2023-04-11T20:12:41.477Z,100.00
2023-04-11T20:17:45.880Z,100.00
2023-04-11T20:22:49.037Z,100.00
2023-04-11T20:27:51.487Z,100.00
2023-04-11T20:32:55.221Z,100.00
2023-04-11T20:37:57.157Z,100.00
2023-04-11T20:43:00.307Z,100.00
2023-04-11T20:48:02.167Z,100.00
2023-04-11T20:53:04.226Z,100.00
2023-04-11T20:58:08.557Z,100.00
2023-04-11T21:03:11.109Z,100.00
2023-04-11T21:08:13.948Z,100.00
2023-04-11T21:13:18.141Z,100.00
2023-04-11T21:18:19.966Z,100.00
2023-04-11T21:23:22.211Z,100.00
2023-04-11T21:28:23.906Z,100.00
2023-04-11T21:33:25.862Z,100.00
2023-04-11T21:38:27.687Z,100.00
2023-04-11T21:43:30.460Z,100.00
2023-04-11T21:48:32.333Z,100.00
2023-04-11T21:53:35.331Z,100.00
2023-04-11T21:58:37.125Z,100.00
2023-04-11T22:03:41.465Z,100.00
2023-04-11T22:08:51.319Z,100.00
2023-04-11T22:13:53.147Z,100.00
2023-04-11T22:18:55.192Z,100.00
2023-04-11T22:23:57.252Z,100.00
2023-04-11T22:29:01.408Z,100.00
2023-04-11T22:34:05.034Z,100.00
2023-04-11T22:39:07.380Z,100.00
2023-04-11T22:44:09.193Z,100.00
2023-04-11T22:49:10.858Z,100.00
2023-04-11T22:54:13.394Z,100.00
2023-04-11T22:59:15.123Z,100.00
2023-04-11T23:04:17.633Z,100.00
2023-04-11T23:09:21.817Z,100.00
2023-04-11T23:14:31.499Z,100.00
2023-04-11T23:19:34.209Z,100.00
2023-04-11T23:24:36.307Z,100.00
2023-04-11T23:29:38.514Z,100.00
2023-04-11T23:34:41.142Z,100.00
2023-04-11T23:39:52.317Z,100.00
2023-04-11T23:44:55.211Z,100.00
2023-04-11T23:50:02.797Z,100.00
2023-04-11T23:55:05.381Z,100.00
